createdAt,value
2022-08-26T00:01:06.465Z,4.68
2022-08-26T00:03:37.680Z,4.97
2022-08-26T00:06:07.784Z,4.68
2022-08-26T00:08:37.767Z,4.95
2022-08-26T00:11:07.981Z,5.13
2022-08-26T00:13:39.132Z,4.40
2022-08-26T00:16:09.520Z,4.28
2022-08-26T00:18:41.172Z,4.72
2022-08-26T00:21:10.994Z,4.60
2022-08-26T00:23:40.526Z,4.30
2022-08-26T00:26:09.719Z,4.80
2022-08-26T00:28:41.731Z,4.70
2022-08-26T00:31:11.269Z,4.75
2022-08-26T00:33:40.948Z,4.35
2022-08-26T00:36:19.854Z,4.60
2022-08-26T00:38:49.496Z,4.32
2022-08-26T00:41:20.621Z,4.40
2022-08-26T00:43:51.905Z,4.85
2022-08-26T00:46:26.202Z,4.55
2022-08-26T00:49:03.981Z,4.50
2022-08-26T00:51:46.894Z,4.60
2022-08-26T00:54:17.921Z,4.43
2022-08-26T00:56:53.766Z,4.70
2022-08-26T00:59:26.323Z,4.63
2022-08-26T01:01:55.421Z,4.45
2022-08-26T01:04:26.136Z,4.40
2022-08-26T01:06:57.632Z,4.88
2022-08-26T01:09:27.553Z,4.65
2022-08-26T01:12:00.058Z,4.43
2022-08-26T01:14:34.937Z,4.35
2022-08-26T01:17:07.749Z,4.78
2022-08-26T01:19:43.919Z,4.60
2022-08-26T01:22:18.648Z,4.32
2022-08-26T01:24:50.516Z,4.53
2022-08-26T01:27:21.964Z,4.50
2022-08-26T01:29:53.498Z,4.20
2022-08-26T01:32:24.714Z,4.63
2022-08-26T01:34:54.529Z,4.75
2022-08-26T01:37:25.820Z,4.30
2022-08-26T01:39:57.975Z,4.50
2022-08-26T01:42:29.138Z,4.78
2022-08-26T01:45:04.703Z,4.50
2022-08-26T01:47:36.493Z,4.72
2022-08-26T01:50:11.713Z,4.53
2022-08-26T01:52:45.000Z,5.43
2022-08-26T01:55:33.249Z,4.70
2022-08-26T01:58:08.785Z,4.20
2022-08-26T02:00:39.080Z,4.45
2022-08-26T02:03:18.116Z,4.57
2022-08-26T02:05:51.405Z,4.63
2022-08-26T02:08:24.934Z,4.65
2022-08-26T02:10:56.532Z,4.75
2022-08-26T02:13:30.068Z,5.35
2022-08-26T02:16:00.788Z,4.78
2022-08-26T02:18:31.407Z,5.15
2022-08-26T02:21:00.788Z,4.70
2022-08-26T02:23:30.345Z,4.57
2022-08-26T02:26:08.591Z,4.50
2022-08-26T02:28:43.872Z,5.00
2022-08-26T02:31:13.432Z,5.75
2022-08-26T02:33:43.031Z,4.65
2022-08-26T02:36:13.509Z,5.03
2022-08-26T02:38:45.010Z,5.25
2022-08-26T02:41:16.694Z,5.63
2022-08-26T02:43:47.214Z,5.22
2022-08-26T02:46:27.938Z,5.30
2022-08-26T02:49:01.179Z,5.05
2022-08-26T02:51:30.350Z,5.82
2022-08-26T02:53:59.606Z,5.30
2022-08-26T02:56:33.702Z,5.57
2022-08-26T02:59:04.801Z,5.13
2022-08-26T03:01:37.004Z,5.50
2022-08-26T03:04:09.591Z,4.70
2022-08-26T03:06:41.479Z,5.55
2022-08-26T03:09:10.800Z,4.90
2022-08-26T03:11:49.040Z,5.30
2022-08-26T03:14:18.320Z,5.22
2022-08-26T03:16:48.425Z,5.15
2022-08-26T03:19:17.807Z,5.32
2022-08-26T03:21:47.350Z,5.40
2022-08-26T03:24:17.507Z,5.15
2022-08-26T03:26:52.034Z,5.55
2022-08-26T03:29:39.511Z,5.38
2022-08-26T03:32:08.797Z,5.15
2022-08-26T03:34:37.927Z,4.90
2022-08-26T03:37:07.804Z,5.25
2022-08-26T03:39:37.863Z,5.53
2022-08-26T03:42:09.142Z,5.63
2022-08-26T03:44:42.272Z,5.70
2022-08-26T03:47:11.831Z,5.55
2022-08-26T03:49:41.777Z,5.68
2022-08-26T03:52:11.445Z,5.53
2022-08-26T03:54:41.249Z,5.70
2022-08-26T03:57:14.009Z,6.20
2022-08-26T03:59:45.863Z,5.90
2022-08-26T04:02:15.637Z,6.30
2022-08-26T04:04:45.759Z,5.60
2022-08-26T04:07:14.882Z,5.47
2022-08-26T04:09:44.250Z,6.28
2022-08-26T04:12:15.017Z,6.10
2022-08-26T04:14:44.115Z,5.90
2022-08-26T04:17:15.579Z,5.75
2022-08-26T04:19:45.990Z,5.43
2022-08-26T04:22:15.942Z,6.03
2022-08-26T04:24:54.093Z,5.25
2022-08-26T04:27:24.857Z,6.13
2022-08-26T04:29:55.334Z,5.75
2022-08-26T04:32:24.493Z,5.45
2022-08-26T04:34:53.489Z,5.88
2022-08-26T04:37:22.726Z,6.18
2022-08-26T04:39:53.356Z,5.82
2022-08-26T04:42:26.109Z,6.50
2022-08-26T04:44:55.566Z,6.22
2022-08-26T04:47:27.164Z,6.03
2022-08-26T04:49:59.940Z,6.40
2022-08-26T04:52:28.999Z,6.30
2022-08-26T04:54:58.035Z,6.78
2022-08-26T04:57:28.594Z,6.40
2022-08-26T04:59:57.919Z,5.53
2022-08-26T05:02:27.904Z,6.55
2022-08-26T05:04:57.563Z,6.68
2022-08-26T05:07:26.712Z,7.03
2022-08-26T05:09:56.107Z,6.45
2022-08-26T05:12:25.128Z,6.00
2022-08-26T05:14:55.937Z,6.22
2022-08-26T05:17:25.403Z,6.25
2022-08-26T05:19:55.405Z,6.82
2022-08-26T05:22:24.620Z,5.97
2022-08-26T05:24:54.335Z,6.15
2022-08-26T05:27:23.372Z,6.57
2022-08-26T05:29:57.051Z,6.10
2022-08-26T05:32:26.075Z,5.88
2022-08-26T05:34:57.081Z,6.07
2022-08-26T05:37:27.663Z,5.80
2022-08-26T05:39:57.177Z,5.70
2022-08-26T05:42:27.206Z,6.95
2022-08-26T05:44:58.796Z,6.30
2022-08-26T05:47:29.017Z,5.95
2022-08-26T05:49:58.381Z,6.22
2022-08-26T05:52:27.684Z,7.68
2022-08-26T05:54:58.529Z,5.50
2022-08-26T05:57:29.889Z,5.00
2022-08-26T06:00:01.767Z,5.97
2022-08-26T06:02:42.486Z,5.38
2022-08-26T06:05:12.686Z,5.30
2022-08-26T06:08:02.567Z,5.05
2022-08-26T06:10:33.453Z,4.68
2022-08-26T06:13:11.663Z,4.28
2022-08-26T06:15:45.506Z,4.40
2022-08-26T06:18:16.742Z,4.40
2022-08-26T06:20:53.719Z,4.20
2022-08-26T06:23:46.531Z,4.00
2022-08-26T06:26:17.117Z,4.13
2022-08-26T06:28:46.216Z,3.75
2022-08-26T06:31:17.905Z,3.25
2022-08-26T06:33:47.227Z,3.88
2022-08-26T06:36:19.406Z,3.83
2022-08-26T06:38:49.519Z,3.58
2022-08-26T06:41:21.027Z,3.33
2022-08-26T06:43:51.207Z,3.80
2022-08-26T06:46:23.232Z,3.70
2022-08-26T06:48:55.612Z,3.80
2022-08-26T06:51:26.936Z,3.88
2022-08-26T06:53:59.555Z,3.47
2022-08-26T06:56:33.064Z,3.75
2022-08-26T06:59:02.253Z,3.65
2022-08-26T07:01:34.628Z,3.75
2022-08-26T07:04:07.914Z,3.78
2022-08-26T07:06:41.576Z,3.58
2022-08-26T07:09:12.607Z,3.20
2022-08-26T07:11:42.905Z,3.30
2022-08-26T07:14:12.173Z,3.65
2022-08-26T07:16:42.650Z,3.63
2022-08-26T07:19:12.120Z,3.30
2022-08-26T07:21:41.643Z,3.40
2022-08-26T07:24:10.995Z,3.67
2022-08-26T07:26:42.915Z,3.53
2022-08-26T07:29:12.729Z,3.85
2022-08-26T07:31:43.273Z,3.35
2022-08-26T07:34:13.776Z,4.10
2022-08-26T07:36:42.943Z,3.58
2022-08-26T07:39:11.933Z,3.13
2022-08-26T07:41:41.145Z,3.97
2022-08-26T07:44:12.188Z,3.50
2022-08-26T07:46:44.020Z,3.50
2022-08-26T07:49:13.630Z,3.35
2022-08-26T07:51:43.717Z,3.17
2022-08-26T07:54:13.648Z,3.78
2022-08-26T07:56:44.287Z,3.17
2022-08-26T07:59:15.136Z,3.45
2022-08-26T08:01:46.123Z,3.38
2022-08-26T08:04:17.186Z,3.72
2022-08-26T08:06:47.713Z,3.72
2022-08-26T08:09:17.187Z,3.83
2022-08-26T08:11:46.675Z,4.22
2022-08-26T08:14:18.167Z,3.72
2022-08-26T08:16:54.636Z,3.35
2022-08-26T08:19:24.414Z,3.53
2022-08-26T08:22:06.881Z,3.58
2022-08-26T08:24:49.879Z,4.10
2022-08-26T08:27:23.998Z,3.70
2022-08-26T08:29:55.103Z,4.15
2022-08-26T08:32:25.938Z,3.75
2022-08-26T08:34:55.023Z,4.13
2022-08-26T08:37:24.498Z,3.92
2022-08-26T08:39:53.717Z,3.88
2022-08-26T08:42:39.085Z,4.30
2022-08-26T08:45:13.789Z,4.00
2022-08-26T08:47:50.574Z,3.90
2022-08-26T08:50:28.025Z,3.97
2022-08-26T08:53:11.329Z,3.92
2022-08-26T08:55:52.566Z,4.05
2022-08-26T08:58:28.203Z,3.88
2022-08-26T09:01:04.809Z,3.75
2022-08-26T09:03:48.583Z,3.65
2022-08-26T09:06:20.741Z,3.28
2022-08-26T09:08:51.691Z,3.70
2022-08-26T09:11:21.733Z,3.50
2022-08-26T09:13:54.274Z,4.32
2022-08-26T09:16:28.736Z,3.67
2022-08-26T09:19:06.848Z,3.67
2022-08-26T09:21:35.887Z,4.15
2022-08-26T09:24:05.626Z,4.70
2022-08-26T09:26:47.435Z,4.38
2022-08-26T09:29:23.477Z,3.53
2022-08-26T09:31:54.756Z,4.45
2022-08-26T09:34:28.468Z,3.58
2022-08-26T09:36:59.558Z,3.90
2022-08-26T09:39:33.139Z,3.95
2022-08-26T09:42:09.567Z,4.20
2022-08-26T09:44:55.723Z,3.90
2022-08-26T09:47:31.796Z,4.30
2022-08-26T09:50:12.578Z,4.55
2022-08-26T09:52:42.840Z,4.60
2022-08-26T09:55:22.231Z,3.80
2022-08-26T09:57:54.030Z,4.22
2022-08-26T10:00:33.242Z,4.50
2022-08-26T10:03:05.060Z,4.35
2022-08-26T10:05:40.520Z,4.53
2022-08-26T10:08:25.347Z,4.13
2022-08-26T10:10:56.187Z,4.13
2022-08-26T10:13:31.325Z,4.15
2022-08-26T10:16:07.477Z,4.25
2022-08-26T10:18:42.984Z,4.72
2022-08-26T10:21:18.697Z,4.65
2022-08-26T10:23:51.271Z,4.93
2022-08-26T10:26:28.658Z,4.07
2022-08-26T10:29:06.266Z,4.60
2022-08-26T10:31:40.674Z,4.35
2022-08-26T10:34:12.488Z,3.97
2022-08-26T10:37:13.662Z,4.07
2022-08-26T10:39:49.450Z,3.60
2022-08-26T10:42:33.400Z,3.85
2022-08-26T10:45:11.899Z,3.78
2022-08-26T10:47:49.673Z,3.45
2022-08-26T10:50:19.762Z,3.40
2022-08-26T10:53:01.283Z,3.95
2022-08-26T10:55:38.387Z,3.70
2022-08-26T10:58:33.221Z,3.72
2022-08-26T11:01:28.342Z,3.45
2022-08-26T11:04:06.730Z,3.33
2022-08-26T11:06:37.126Z,3.40
2022-08-26T11:09:09.821Z,3.70
2022-08-26T11:11:50.628Z,3.15
2022-08-26T11:14:42.070Z,3.70
2022-08-26T11:17:56.294Z,3.58
2022-08-26T11:20:39.332Z,3.63
2022-08-26T11:23:41.632Z,3.78
2022-08-26T11:26:37.605Z,4.32
2022-08-26T11:29:13.041Z,3.30
2022-08-26T11:31:57.335Z,2.88
2022-08-26T11:34:52.863Z,3.58
2022-08-26T11:37:27.190Z,3.25
2022-08-26T11:39:57.567Z,3.15
2022-08-26T11:42:36.253Z,3.53
2022-08-26T11:45:19.322Z,3.00
2022-08-26T11:47:49.392Z,3.60
2022-08-26T11:50:23.291Z,2.90
2022-08-26T11:53:01.628Z,4.07
2022-08-26T11:55:31.110Z,3.20
2022-08-26T11:58:04.980Z,3.38
2022-08-26T12:00:49.723Z,3.50
2022-08-26T12:03:23.200Z,3.30
2022-08-26T12:05:54.459Z,3.33
2022-08-26T12:08:27.984Z,3.08
2022-08-26T12:11:05.237Z,3.35
2022-08-26T12:13:38.897Z,3.50
2022-08-26T12:16:08.413Z,3.55
2022-08-26T12:18:39.647Z,3.40
2022-08-26T12:21:20.214Z,3.53
2022-08-26T12:23:52.924Z,3.47
2022-08-26T12:26:26.271Z,3.38
2022-08-26T12:29:00.942Z,3.60
2022-08-26T12:31:33.088Z,3.22
2022-08-26T12:34:04.738Z,3.30
2022-08-26T12:36:37.332Z,3.25
2022-08-26T12:39:11.619Z,3.53
2022-08-26T12:41:45.232Z,3.70
2022-08-26T12:44:36.637Z,4.07
2022-08-26T12:47:09.955Z,4.10
2022-08-26T12:49:40.821Z,4.82
2022-08-26T12:52:29.800Z,4.30
2022-08-26T12:55:01.197Z,3.92
2022-08-26T12:57:32.916Z,4.30
2022-08-26T13:00:33.178Z,4.60
2022-08-26T13:03:02.762Z,4.30
2022-08-26T13:05:35.482Z,4.05
2022-08-26T13:08:16.583Z,4.88
2022-08-26T13:10:48.606Z,4.32
2022-08-26T13:13:17.732Z,4.25
2022-08-26T13:15:48.166Z,4.00
2022-08-26T13:18:17.612Z,4.00
2022-08-26T13:20:46.820Z,3.95
2022-08-26T13:23:16.357Z,4.15
2022-08-26T13:25:45.536Z,3.75
2022-08-26T13:28:14.780Z,4.05
2022-08-26T13:30:49.662Z,3.80
2022-08-26T13:33:19.298Z,4.18
2022-08-26T13:35:49.371Z,3.60
2022-08-26T13:38:33.567Z,3.90
2022-08-26T13:41:03.501Z,3.85
2022-08-26T13:43:32.970Z,4.22
2022-08-26T13:46:03.709Z,4.03
2022-08-26T13:48:33.896Z,3.97
2022-08-26T13:51:03.274Z,4.35
2022-08-26T13:53:37.405Z,4.00
2022-08-26T13:56:10.866Z,3.83
2022-08-26T13:58:40.280Z,3.55
2022-08-26T14:01:10.757Z,4.07
2022-08-26T14:03:40.019Z,3.55
2022-08-26T14:06:09.849Z,3.42
2022-08-26T14:08:41.536Z,3.30
2022-08-26T14:11:10.911Z,3.50
2022-08-26T14:13:40.385Z,3.35
2022-08-26T14:16:16.289Z,3.80
2022-08-26T14:18:50.481Z,3.92
2022-08-26T14:21:20.598Z,3.53
2022-08-26T14:24:00.810Z,3.35
2022-08-26T14:26:32.365Z,3.38
2022-08-26T14:29:04.280Z,3.60
2022-08-26T14:31:37.877Z,2.63
2022-08-26T14:34:10.767Z,3.38
2022-08-26T14:36:43.735Z,3.30
2022-08-26T14:39:15.233Z,3.30
2022-08-26T14:41:54.077Z,3.60
2022-08-26T14:44:26.901Z,3.50
2022-08-26T14:46:57.883Z,3.10
2022-08-26T14:49:27.798Z,3.28
2022-08-26T14:51:56.867Z,3.10
2022-08-26T14:54:26.264Z,2.95
2022-08-26T14:56:58.567Z,3.47
2022-08-26T14:59:37.348Z,3.67
2022-08-26T15:02:11.496Z,2.80
2022-08-26T15:04:43.468Z,3.30
2022-08-26T15:07:12.802Z,3.22
2022-08-26T15:09:41.976Z,2.80
2022-08-26T15:12:11.055Z,2.80
2022-08-26T15:14:40.550Z,2.72
2022-08-26T15:17:10.894Z,2.80
2022-08-26T15:19:40.046Z,2.67
2022-08-26T15:22:09.119Z,2.67
2022-08-26T15:24:38.228Z,2.50
2022-08-26T15:27:08.457Z,2.38
2022-08-26T15:29:37.635Z,2.63
2022-08-26T15:32:07.071Z,2.30
2022-08-26T15:34:37.711Z,2.35
2022-08-26T15:37:07.188Z,2.05
2022-08-26T15:39:36.518Z,2.33
2022-08-26T15:42:07.141Z,2.30
2022-08-26T15:44:37.333Z,2.20
2022-08-26T15:47:06.968Z,2.30
2022-08-26T15:49:38.833Z,1.83
2022-08-26T15:52:11.014Z,1.98
2022-08-26T15:54:41.069Z,1.52
2022-08-26T15:57:12.387Z,1.48
2022-08-26T15:59:43.907Z,1.60
2022-08-26T16:02:13.644Z,1.80
2022-08-26T16:04:44.266Z,1.20
2022-08-26T16:07:14.544Z,1.10
2022-08-26T16:09:46.130Z,1.58
2022-08-26T16:12:22.830Z,1.30
2022-08-26T16:14:54.143Z,1.75
2022-08-26T16:17:24.305Z,1.92
2022-08-26T16:19:56.611Z,1.50
2022-08-26T16:22:26.954Z,1.95
2022-08-26T16:24:58.975Z,1.73
2022-08-26T16:27:28.183Z,1.98
2022-08-26T16:29:57.282Z,1.55
2022-08-26T16:32:30.739Z,2.38
2022-08-26T16:35:01.934Z,2.20
2022-08-26T16:37:31.035Z,2.30
2022-08-26T16:40:00.633Z,2.45
2022-08-26T16:42:29.821Z,2.13
2022-08-26T16:44:59.066Z,2.28
2022-08-26T16:47:28.329Z,2.20
2022-08-26T16:49:57.499Z,2.45
2022-08-26T16:52:31.299Z,2.50
2022-08-26T16:55:00.884Z,2.45
2022-08-26T16:57:30.045Z,2.00
2022-08-26T16:59:59.263Z,1.73
2022-08-26T17:02:28.469Z,2.85
2022-08-26T17:04:57.617Z,2.63
2022-08-26T17:07:28.169Z,2.50
2022-08-26T17:09:57.823Z,2.53
2022-08-26T17:12:28.342Z,3.20
2022-08-26T17:14:57.611Z,3.30
2022-08-26T17:17:26.975Z,3.78
2022-08-26T17:19:56.158Z,3.55
2022-08-26T17:22:25.367Z,3.25
2022-08-26T17:24:56.371Z,3.65
2022-08-26T17:27:25.846Z,3.50
2022-08-26T17:29:54.956Z,3.50
2022-08-26T17:32:24.027Z,3.17
2022-08-26T17:34:53.088Z,3.80
2022-08-26T17:37:22.121Z,4.00
2022-08-26T17:39:51.315Z,3.70
2022-08-26T17:42:22.033Z,3.28
2022-08-26T17:45:01.823Z,3.40
2022-08-26T17:47:30.868Z,3.22
2022-08-26T17:50:00.784Z,3.63
2022-08-26T17:52:30.326Z,3.80
2022-08-26T17:54:59.689Z,3.58
2022-08-26T17:57:31.026Z,4.20
2022-08-26T18:00:00.273Z,4.03
2022-08-26T18:04:59.902Z,4.35
2022-08-26T18:07:29.853Z,4.13
2022-08-26T18:09:58.881Z,3.50
2022-08-26T18:12:29.376Z,3.40
2022-08-26T18:14:58.460Z,3.47
2022-08-26T18:17:27.827Z,3.85
2022-08-26T18:19:56.942Z,3.42
2022-08-26T18:22:25.931Z,2.80
2022-08-26T18:24:58.953Z,2.75
2022-08-26T18:27:29.859Z,2.47
2022-08-26T18:30:02.006Z,2.70
2022-08-26T18:32:31.115Z,2.95
2022-08-26T18:35:00.359Z,2.72
2022-08-26T18:37:31.578Z,2.75
2022-08-26T18:40:02.158Z,3.00
2022-08-26T18:42:34.620Z,2.88
2022-08-26T18:45:04.082Z,2.90
2022-08-26T18:47:34.017Z,3.30
2022-08-26T18:50:05.480Z,2.80
2022-08-26T18:52:34.875Z,2.95
2022-08-26T18:55:04.382Z,3.10
2022-08-26T18:57:36.369Z,3.08
2022-08-26T19:00:07.794Z,2.75
2022-08-26T19:02:36.949Z,2.95
2022-08-26T19:05:08.590Z,3.35
2022-08-26T19:07:39.715Z,3.40
2022-08-26T19:10:09.723Z,3.38
2022-08-26T19:12:40.469Z,4.10
2022-08-26T19:15:10.494Z,3.60
2022-08-26T19:17:42.362Z,3.63
2022-08-26T19:20:12.633Z,3.67
2022-08-26T19:22:42.011Z,3.50
2022-08-26T19:25:11.732Z,3.90
2022-08-26T19:27:42.412Z,3.70
2022-08-26T19:30:15.133Z,4.00
2022-08-26T19:32:44.486Z,3.60
2022-08-26T19:35:14.551Z,3.70
2022-08-26T19:37:43.842Z,3.75
2022-08-26T19:40:14.146Z,3.70
2022-08-26T19:42:44.633Z,3.55
2022-08-26T19:45:24.946Z,3.80
2022-08-26T19:47:54.670Z,4.03
2022-08-26T19:50:26.028Z,4.10
2022-08-26T19:52:55.288Z,4.20
2022-08-26T19:55:29.586Z,4.22
2022-08-26T19:58:00.103Z,4.70
2022-08-26T20:00:31.958Z,5.40
2022-08-26T20:03:01.519Z,5.20
2022-08-26T20:05:30.647Z,4.95
2022-08-26T20:07:59.831Z,6.05
2022-08-26T20:10:29.003Z,5.38
2022-08-26T20:12:59.596Z,5.30
2022-08-26T20:15:32.031Z,6.25
2022-08-26T20:18:01.314Z,5.30
2022-08-26T20:20:50.618Z,5.32
2022-08-26T20:23:21.099Z,5.75
2022-08-26T20:25:50.367Z,5.20
2022-08-26T20:28:20.848Z,5.07
2022-08-26T20:30:50.843Z,5.50
2022-08-26T20:33:20.528Z,4.57
2022-08-26T20:35:51.855Z,5.68
2022-08-26T20:38:21.731Z,5.53
2022-08-26T20:40:51.056Z,4.90
2022-08-26T20:43:25.886Z,5.30
2022-08-26T20:45:55.268Z,5.15
2022-08-26T20:48:24.549Z,5.13
2022-08-26T20:50:57.184Z,5.45
2022-08-26T20:53:27.277Z,5.03
2022-08-26T20:56:00.504Z,5.32
2022-08-26T20:58:31.693Z,4.80
2022-08-26T21:01:05.286Z,5.38
2022-08-26T21:03:37.666Z,5.20
2022-08-26T21:06:07.523Z,5.55
2022-08-26T21:08:39.732Z,5.97
2022-08-26T21:11:12.281Z,5.30
2022-08-26T21:14:04.057Z,5.20
2022-08-26T21:16:33.094Z,6.00
2022-08-26T21:19:02.201Z,5.40
2022-08-26T21:21:31.358Z,5.10
2022-08-26T21:24:00.720Z,5.28
2022-08-26T21:26:29.916Z,5.60
2022-08-26T21:29:02.595Z,5.50
2022-08-26T21:31:32.652Z,5.68
2022-08-26T21:34:01.843Z,5.72
2022-08-26T21:36:31.114Z,5.72
2022-08-26T21:39:01.760Z,6.63
2022-08-26T21:41:31.181Z,6.57
2022-08-26T21:44:01.676Z,6.13
2022-08-26T21:46:32.046Z,5.03
2022-08-26T21:49:02.879Z,6.22
2022-08-26T21:51:34.630Z,5.88
2022-08-26T21:54:09.953Z,6.25
2022-08-26T21:56:44.163Z,6.55
2022-08-26T21:59:16.249Z,6.57
2022-08-26T22:01:45.460Z,6.60
2022-08-26T22:04:14.823Z,6.35
2022-08-26T22:06:45.883Z,6.68
2022-08-26T22:09:17.857Z,6.60
2022-08-26T22:11:47.412Z,6.25
2022-08-26T22:14:20.493Z,6.07
2022-08-26T22:16:50.575Z,6.75
2022-08-26T22:19:20.983Z,7.07
2022-08-26T22:21:55.128Z,6.55
2022-08-26T22:24:27.094Z,6.57
2022-08-26T22:26:57.139Z,6.50
2022-08-26T22:29:27.924Z,6.75
2022-08-26T22:31:57.199Z,6.53
2022-08-26T22:34:26.329Z,7.13
2022-08-26T22:36:55.535Z,7.63
2022-08-26T22:39:26.488Z,7.57
2022-08-26T22:41:57.239Z,8.05
2022-08-26T22:44:27.619Z,7.38
2022-08-26T22:46:56.950Z,7.50
2022-08-26T22:49:26.436Z,7.07
2022-08-26T22:51:55.904Z,7.43
2022-08-26T22:54:25.267Z,7.47
2022-08-26T22:56:55.957Z,8.00
2022-08-26T22:59:26.606Z,8.82
2022-08-26T23:01:55.675Z,9.90
2022-08-26T23:04:24.821Z,8.10
2022-08-26T23:06:53.911Z,9.18
2022-08-26T23:09:23.024Z,8.80
2022-08-26T23:11:52.197Z,9.45
2022-08-26T23:14:21.377Z,9.15
2022-08-26T23:16:52.766Z,8.95
2022-08-26T23:19:23.492Z,8.50
2022-08-26T23:21:52.876Z,8.60
2022-08-26T23:24:23.015Z,8.75
2022-08-26T23:26:52.121Z,8.75
2022-08-26T23:29:21.300Z,8.90
2022-08-26T23:31:51.887Z,9.70
2022-08-26T23:34:38.766Z,8.57
2022-08-26T23:37:08.742Z,9.00
2022-08-26T23:39:38.187Z,8.52
2022-08-26T23:42:08.190Z,9.10
2022-08-26T23:44:37.702Z,8.35
2022-08-26T23:47:09.020Z,9.73
2022-08-26T23:49:38.456Z,9.35
2022-08-26T23:52:25.843Z,9.00
2022-08-26T23:54:55.007Z,9.40
2022-08-26T23:57:26.482Z,9.10
2022-08-26T23:59:55.803Z,9.93
